createdAt,value
2023-03-24T00:00:26.880Z,96258.88
2023-03-24T00:02:56.479Z,96268.25
2023-03-24T00:05:24.810Z,96248.16
2023-03-24T00:07:55.411Z,96244.81
2023-03-24T00:10:23.628Z,96252.00
2023-03-24T00:12:52.241Z,96240.28
2023-03-24T00:15:22.106Z,96242.81
2023-03-24T00:17:51.154Z,96242.47
2023-03-24T00:20:20.499Z,96242.47
2023-03-24T00:22:50.900Z,96227.75
2023-03-24T00:25:22.008Z,96220.88
2023-03-24T00:27:51.324Z,96222.56
2023-03-24T00:30:20.422Z,96219.56
2023-03-24T00:32:48.621Z,96217.03
2023-03-24T00:35:17.850Z,96219.22
2023-03-24T00:37:46.205Z,96217.88
2023-03-24T00:40:16.617Z,96214.38
2023-03-24T00:42:47.773Z,96201.97
2023-03-24T00:45:18.230Z,96190.09
2023-03-24T00:47:46.425Z,96192.09
2023-03-24T00:50:17.319Z,96172.88
2023-03-24T00:52:48.266Z,96163.31
2023-03-24T00:55:16.772Z,96161.78
2023-03-24T00:57:50.419Z,96164.00
2023-03-24T01:00:21.023Z,96163.47
2023-03-24T01:02:53.612Z,96154.94
2023-03-24T01:05:22.027Z,96151.75
2023-03-24T01:07:52.112Z,96147.75
2023-03-24T01:10:21.752Z,96146.91
2023-03-24T01:12:51.284Z,96142.88
2023-03-24T01:15:22.019Z,96141.72
2023-03-24T01:17:50.393Z,96126.47
2023-03-24T01:20:18.723Z,96122.44
2023-03-24T01:22:47.325Z,96134.00
2023-03-24T01:25:16.761Z,96125.28
2023-03-24T01:27:44.853Z,96121.44
2023-03-24T01:30:14.874Z,96126.81
2023-03-24T01:32:43.974Z,96118.44
2023-03-24T01:35:12.502Z,96120.78
2023-03-24T01:37:40.581Z,96118.94
2023-03-24T01:40:10.149Z,96127.81
2023-03-24T01:42:38.650Z,96126.63
2023-03-24T01:45:39.710Z,96124.78
2023-03-24T01:48:09.473Z,96112.06
2023-03-24T01:50:37.586Z,96109.88
2023-03-24T01:53:05.746Z,96102.53
2023-03-24T01:55:33.904Z,96101.34
2023-03-24T01:58:03.280Z,96100.97
2023-03-24T02:00:31.373Z,96097.63
2023-03-24T02:03:18.426Z,96092.59
2023-03-24T02:05:47.721Z,96088.88
2023-03-24T02:08:18.672Z,96079.56
2023-03-24T02:10:47.081Z,96071.31
2023-03-24T02:13:15.932Z,96065.50
2023-03-24T02:15:47.150Z,96059.94
2023-03-24T02:18:21.216Z,96052.25
2023-03-24T02:21:39.788Z,96042.53
2023-03-24T02:24:19.551Z,96042.03
2023-03-24T02:26:55.475Z,96034.19
2023-03-24T02:30:06.649Z,96034.00
2023-03-24T02:33:04.522Z,96024.94
2023-03-24T02:36:00.150Z,96029.66
2023-03-24T02:38:58.361Z,96018.28
2023-03-24T02:41:28.054Z,96013.09
2023-03-24T02:43:59.221Z,96002.50
2023-03-24T02:46:28.796Z,96001.84
2023-03-24T02:49:07.187Z,95996.47
2023-03-24T02:51:40.110Z,95986.41
2023-03-24T02:54:10.568Z,95985.09
2023-03-24T02:56:40.473Z,95977.06
2023-03-24T02:59:08.952Z,95973.84
2023-03-24T03:01:41.322Z,95974.34
2023-03-24T03:04:10.650Z,95970.84
2023-03-24T03:06:40.725Z,95971.31
2023-03-24T03:09:11.054Z,95969.66
2023-03-24T03:11:41.288Z,95977.97
2023-03-24T03:14:10.635Z,95986.50
2023-03-24T03:16:40.796Z,95982.41
2023-03-24T03:19:12.239Z,95970.09
2023-03-24T03:21:41.605Z,95979.63
2023-03-24T03:24:11.220Z,95971.66
2023-03-24T03:26:41.778Z,95975.28
2023-03-24T03:29:11.222Z,95972.94
2023-03-24T03:31:42.016Z,95966.91
2023-03-24T03:34:12.295Z,95970.53
2023-03-24T03:36:43.091Z,95968.91
2023-03-24T03:39:13.880Z,95965.84
2023-03-24T03:41:43.628Z,95962.00
2023-03-24T03:44:11.922Z,95969.38
2023-03-24T03:46:39.972Z,95969.00
2023-03-24T03:49:08.065Z,95968.53
2023-03-24T03:51:36.112Z,95961.50
2023-03-24T03:54:05.589Z,95953.56
2023-03-24T03:56:34.738Z,95956.44
2023-03-24T03:59:04.414Z,95955.78
2023-03-24T04:01:37.311Z,95955.06
2023-03-24T04:04:48.506Z,95959.59
2023-03-24T04:07:24.201Z,95962.63
2023-03-24T04:09:58.501Z,95961.16
2023-03-24T04:12:52.225Z,95969.66
2023-03-24T04:15:48.386Z,95968.47
2023-03-24T04:18:42.997Z,95976.69
2023-03-24T04:21:20.043Z,95975.34
2023-03-24T04:23:54.283Z,95984.22
2023-03-24T04:26:27.630Z,95975.63
2023-03-24T04:29:02.411Z,95967.97
2023-03-24T04:31:34.316Z,95973.69
2023-03-24T04:34:05.258Z,95971.31
2023-03-24T04:36:42.690Z,95969.38
2023-03-24T04:39:11.621Z,95981.22
2023-03-24T04:41:39.812Z,95991.63
2023-03-24T04:44:07.776Z,95991.66
2023-03-24T04:46:37.866Z,95986.28
2023-03-24T04:49:06.369Z,95974.84
2023-03-24T04:51:34.468Z,95978.38
2023-03-24T04:54:02.755Z,95981.06
2023-03-24T04:56:39.829Z,96001.31
2023-03-24T04:59:08.298Z,96008.72
2023-03-24T05:01:38.267Z,96012.22
2023-03-24T05:04:06.332Z,96015.78
2023-03-24T05:06:34.423Z,96022.03
2023-03-24T05:09:02.640Z,96021.66
2023-03-24T05:11:31.156Z,96038.41
2023-03-24T05:13:59.022Z,96053.97
2023-03-24T05:16:26.994Z,96056.38
2023-03-24T05:18:56.611Z,96047.66
2023-03-24T05:21:24.526Z,96054.94
2023-03-24T05:23:52.455Z,96064.09
2023-03-24T05:26:20.522Z,96061.41
2023-03-24T05:28:48.573Z,96063.09
2023-03-24T05:31:16.813Z,96070.63
2023-03-24T05:33:45.086Z,96070.84
2023-03-24T05:36:14.926Z,96079.88
2023-03-24T05:38:42.948Z,96087.56
2023-03-24T05:41:10.822Z,96090.25
2023-03-24T05:43:38.770Z,96091.75
2023-03-24T05:46:07.112Z,96094.97
2023-03-24T05:48:35.056Z,96103.66
2023-03-24T05:51:03.339Z,96096.47
2023-03-24T05:53:32.767Z,96099.13
2023-03-24T05:56:01.003Z,96115.09
2023-03-24T05:58:28.894Z,96121.94
2023-03-24T06:00:57.140Z,96117.91
2023-03-24T06:03:25.302Z,96122.81
2023-03-24T06:05:53.320Z,96128.31
2023-03-24T06:08:21.306Z,96136.50
2023-03-24T06:10:53.508Z,96134.66
2023-03-24T06:13:21.706Z,96135.00
2023-03-24T06:15:49.758Z,96135.03
2023-03-24T06:18:18.084Z,96124.47
2023-03-24T06:20:46.070Z,96116.13
2023-03-24T06:23:13.971Z,96118.59
2023-03-24T06:25:47.856Z,96132.13
2023-03-24T06:28:25.825Z,96145.72
2023-03-24T06:30:56.643Z,96150.88
2023-03-24T06:33:25.946Z,96153.75
2023-03-24T06:35:57.506Z,96137.63
2023-03-24T06:38:26.400Z,96145.03
2023-03-24T06:40:54.350Z,96139.53
2023-03-24T06:43:24.829Z,96143.81
2023-03-24T06:45:53.718Z,96161.25
2023-03-24T06:48:21.734Z,96154.16
2023-03-24T06:50:49.692Z,96163.88
2023-03-24T06:53:17.822Z,96153.38
2023-03-24T06:55:47.462Z,96157.34
2023-03-24T06:58:15.792Z,96159.88
2023-03-24T07:00:46.665Z,96161.22
2023-03-24T07:03:16.674Z,96175.16
2023-03-24T07:05:45.689Z,96186.25
2023-03-24T07:10:44.988Z,96200.19
2023-03-24T07:13:13.021Z,96214.78
2023-03-24T07:15:40.940Z,96209.75
2023-03-24T07:18:15.987Z,96224.69
2023-03-24T07:20:51.568Z,96221.56
2023-03-24T07:23:20.888Z,96207.53
2023-03-24T07:25:49.521Z,96215.75
2023-03-24T07:28:17.851Z,96218.00
2023-03-24T07:30:45.893Z,96212.66
2023-03-24T07:33:15.561Z,96224.13
2023-03-24T07:35:43.705Z,96231.13
2023-03-24T07:38:12.435Z,96243.56
2023-03-24T07:40:40.314Z,96236.78
2023-03-24T07:43:08.888Z,96237.28
2023-03-24T07:45:36.854Z,96236.94
2023-03-24T07:48:05.326Z,96239.00
2023-03-24T07:50:34.807Z,96238.50
2023-03-24T07:53:02.774Z,96247.91
2023-03-24T07:55:30.802Z,96246.94
2023-03-24T07:57:59.194Z,96251.63
2023-03-24T08:00:27.401Z,96264.69
2023-03-24T08:02:55.793Z,96263.06
2023-03-24T08:05:24.917Z,96266.94
2023-03-24T08:07:54.883Z,96268.53
2023-03-24T08:10:24.181Z,96256.34
2023-03-24T08:12:52.569Z,96250.47
2023-03-24T08:15:20.679Z,96243.94
2023-03-24T08:17:49.191Z,96247.22
2023-03-24T08:20:17.963Z,96247.44
2023-03-24T08:22:49.671Z,96253.38
2023-03-24T08:25:19.989Z,96253.38
2023-03-24T08:27:48.176Z,96248.94
2023-03-24T08:30:17.383Z,96244.63
2023-03-24T08:32:46.401Z,96248.31
2023-03-24T08:35:15.254Z,96251.72
2023-03-24T08:37:45.085Z,96253.69
2023-03-24T08:40:14.536Z,96247.53
2023-03-24T08:42:43.933Z,96260.38
2023-03-24T08:45:12.284Z,96270.75
2023-03-24T08:47:40.286Z,96260.13
2023-03-24T08:50:09.740Z,96248.03
2023-03-24T08:52:37.967Z,96236.97
2023-03-24T08:55:07.704Z,96234.28
2023-03-24T08:57:35.654Z,96240.84
2023-03-24T09:00:12.188Z,96235.00
2023-03-24T09:02:40.549Z,96243.34
2023-03-24T09:05:09.509Z,96254.75
2023-03-24T09:07:37.781Z,96259.44
2023-03-24T09:10:06.768Z,96240.69
2023-03-24T09:12:35.359Z,96241.03
2023-03-24T09:15:06.317Z,96228.44
2023-03-24T09:17:34.362Z,96244.03
2023-03-24T09:20:02.596Z,96244.81
2023-03-24T09:22:30.560Z,96244.00
2023-03-24T09:24:58.423Z,96239.28
2023-03-24T09:27:26.671Z,96250.19
2023-03-24T09:29:54.973Z,96239.38
2023-03-24T09:32:24.325Z,96243.59
2023-03-24T09:34:52.440Z,96236.56
2023-03-24T09:37:21.019Z,96245.22
2023-03-24T09:39:49.399Z,96237.50
2023-03-24T09:42:21.412Z,96235.75
2023-03-24T09:44:50.659Z,96246.44
2023-03-24T09:47:26.068Z,96239.41
2023-03-24T09:49:54.354Z,96248.81
2023-03-24T09:52:24.375Z,96243.78
2023-03-24T09:54:56.260Z,96244.41
2023-03-24T09:57:27.366Z,96249.22
2023-03-24T09:59:55.574Z,96238.56
2023-03-24T10:02:24.928Z,96254.75
2023-03-24T10:04:53.198Z,96249.69
2023-03-24T10:07:24.241Z,96250.50
2023-03-24T10:09:54.865Z,96251.56
2023-03-24T10:12:29.858Z,96256.47
2023-03-24T10:15:05.163Z,96250.47
2023-03-24T10:17:40.118Z,96251.66
2023-03-24T10:20:15.839Z,96257.34
2023-03-24T10:22:46.325Z,96259.53
2023-03-24T10:25:17.473Z,96253.84
2023-03-24T10:27:47.715Z,96265.31
2023-03-24T10:30:17.860Z,96268.88
2023-03-24T10:32:48.199Z,96252.09
2023-03-24T10:35:17.389Z,96277.94
2023-03-24T10:37:52.224Z,96265.47
2023-03-24T10:40:27.489Z,96259.25
2023-03-24T10:43:06.968Z,96257.03
2023-03-24T10:45:38.286Z,96251.84
2023-03-24T10:48:09.515Z,96256.75
2023-03-24T10:50:38.842Z,96257.25
2023-03-24T10:53:10.088Z,96260.19
2023-03-24T10:55:44.163Z,96264.00
2023-03-24T10:58:18.713Z,96252.88
2023-03-24T11:00:47.380Z,96257.31
2023-03-24T11:03:18.043Z,96248.00
2023-03-24T11:05:46.283Z,96245.66
2023-03-24T11:08:23.069Z,96258.88
2023-03-24T11:10:51.582Z,96254.22
2023-03-24T11:13:21.212Z,96263.00
2023-03-24T11:15:54.800Z,96270.78
2023-03-24T11:18:24.159Z,96268.00
2023-03-24T11:20:55.281Z,96266.31
2023-03-24T11:23:28.591Z,96280.91
2023-03-24T11:26:05.817Z,96277.38
2023-03-24T11:28:37.908Z,96274.22
2023-03-24T11:31:08.013Z,96279.78
2023-03-24T11:33:42.979Z,96288.28
2023-03-24T11:36:38.178Z,96281.56
2023-03-24T11:39:15.651Z,96282.75
2023-03-24T11:41:45.740Z,96270.63
2023-03-24T11:45:19.407Z,96280.47
2023-03-24T11:47:47.933Z,96278.38
2023-03-24T11:50:19.998Z,96284.84
2023-03-24T11:52:50.272Z,96281.06
2023-03-24T11:55:19.471Z,96277.75
2023-03-24T11:57:51.591Z,96279.81
2023-03-24T12:00:21.897Z,96281.38
2023-03-24T12:02:59.814Z,96272.47
2023-03-24T12:05:34.485Z,96275.97
2023-03-24T12:08:09.418Z,96262.22
2023-03-24T12:10:55.702Z,96270.19
2023-03-24T12:13:33.055Z,96277.75
2023-03-24T12:16:06.289Z,96281.72
2023-03-24T12:19:07.659Z,96280.13
2023-03-24T12:21:45.324Z,96265.81
2023-03-24T12:24:19.731Z,96276.69
2023-03-24T12:26:47.834Z,96265.25
2023-03-24T12:29:36.713Z,96259.69
2023-03-24T12:32:26.039Z,96254.88
2023-03-24T12:35:31.508Z,96253.47
2023-03-24T12:38:14.966Z,96247.25
2023-03-24T12:41:05.950Z,96250.56
2023-03-24T12:43:40.353Z,96248.84
2023-03-24T12:46:12.680Z,96253.69
2023-03-24T12:48:49.013Z,96238.41
2023-03-24T12:51:22.747Z,96254.72
2023-03-24T12:53:59.778Z,96238.00
2023-03-24T12:56:30.261Z,96235.91
2023-03-24T12:58:59.885Z,96239.38
2023-03-24T13:01:31.804Z,96230.38
2023-03-24T13:04:01.279Z,96230.16
2023-03-24T13:06:32.427Z,96246.00
2023-03-24T13:09:08.131Z,96237.38
2023-03-24T13:11:39.933Z,96238.22
2023-03-24T13:14:11.182Z,96230.47
2023-03-24T13:16:39.249Z,96229.66
2023-03-24T13:19:11.580Z,96228.53
2023-03-24T13:21:40.076Z,96237.72
2023-03-24T13:24:11.599Z,96227.97
2023-03-24T13:26:42.757Z,96231.31
2023-03-24T13:29:38.499Z,96227.56
2023-03-24T13:32:18.478Z,96236.25
2023-03-24T13:34:49.116Z,96220.91
2023-03-24T13:37:19.656Z,96227.69
2023-03-24T13:39:51.516Z,96234.31
2023-03-24T13:42:32.687Z,96218.63
2023-03-24T13:45:01.988Z,96220.22
2023-03-24T13:47:38.038Z,96224.31
2023-03-24T13:50:07.121Z,96222.09
2023-03-24T13:52:36.793Z,96221.28
2023-03-24T13:55:10.910Z,96237.56
2023-03-24T13:57:42.000Z,96228.69
2023-03-24T14:00:20.537Z,96215.91
2023-03-24T14:02:50.236Z,96215.09
2023-03-24T14:05:42.948Z,96217.78
2023-03-24T14:08:15.284Z,96201.63
2023-03-24T14:10:49.841Z,96220.72
2023-03-24T14:13:39.456Z,96215.63
2023-03-24T14:16:36.468Z,96217.94
2023-03-24T14:19:22.137Z,96217.81
2023-03-24T14:21:54.926Z,96212.00
2023-03-24T14:24:25.032Z,96201.22
2023-03-24T14:26:54.523Z,96210.31
2023-03-24T14:29:39.527Z,96206.44
2023-03-24T14:32:19.299Z,96211.16
2023-03-24T14:34:53.074Z,96207.63
2023-03-24T14:37:22.143Z,96205.41
2023-03-24T14:39:50.370Z,96204.09
2023-03-24T14:42:47.541Z,96208.66
2023-03-24T14:45:40.750Z,96211.28
2023-03-24T14:48:21.287Z,96222.78
2023-03-24T14:50:49.705Z,96232.78
2023-03-24T14:53:19.726Z,96252.41
2023-03-24T14:55:48.312Z,96275.19
2023-03-24T14:58:22.273Z,96282.19
2023-03-24T15:01:06.372Z,96268.81
2023-03-24T15:03:38.519Z,96277.44
2023-03-24T15:06:17.090Z,96277.78
2023-03-24T15:08:50.636Z,96264.66
2023-03-24T15:11:20.145Z,96271.88
2023-03-24T15:13:52.058Z,96264.06
2023-03-24T15:16:22.858Z,96258.06
2023-03-24T15:19:00.636Z,96248.06
2023-03-24T15:21:31.656Z,96239.25
2023-03-24T15:24:01.305Z,96236.03
2023-03-24T15:26:32.498Z,96233.38
2023-03-24T15:29:02.839Z,96225.72
2023-03-24T15:31:33.716Z,96229.84
2023-03-24T15:34:09.293Z,96233.78
2023-03-24T15:36:41.215Z,96218.81
2023-03-24T15:39:20.036Z,96234.53
2023-03-24T15:41:48.031Z,96220.50
2023-03-24T15:44:20.799Z,96209.50
2023-03-24T15:46:49.034Z,96215.16
2023-03-24T15:49:26.426Z,96202.09
2023-03-24T15:51:57.890Z,96199.84
2023-03-24T15:54:26.337Z,96191.13
2023-03-24T15:57:11.110Z,96198.63
2023-03-24T15:59:45.020Z,96196.72
2023-03-24T16:02:15.108Z,96175.56
2023-03-24T16:04:43.148Z,96177.38
2023-03-24T16:07:24.134Z,96181.66
2023-03-24T16:09:59.689Z,96172.44
2023-03-24T16:12:30.709Z,96175.19
2023-03-24T16:15:06.315Z,96181.00
2023-03-24T16:17:36.255Z,96197.84
2023-03-24T16:20:09.281Z,96200.69
2023-03-24T16:22:38.374Z,96235.25
2023-03-24T16:25:07.204Z,96275.94
2023-03-24T16:27:35.077Z,96301.16
2023-03-24T16:30:08.268Z,96299.94
2023-03-24T16:32:36.479Z,96325.13
2023-03-24T16:35:04.650Z,96357.34
2023-03-24T16:37:32.808Z,96356.59
2023-03-24T16:40:03.388Z,96318.78
2023-03-24T16:42:31.703Z,96341.72
2023-03-24T16:45:00.157Z,96347.03
2023-03-24T16:47:30.374Z,96371.34
2023-03-24T16:49:58.458Z,96381.44
2023-03-24T16:52:26.680Z,96380.91
2023-03-24T16:54:55.022Z,96375.84
2023-03-24T16:57:23.187Z,96383.44
2023-03-24T16:59:51.249Z,96376.69
2023-03-24T17:02:19.296Z,96375.97
2023-03-24T17:04:49.666Z,96390.88
2023-03-24T17:07:17.902Z,96382.97
2023-03-24T17:09:47.652Z,96407.69
2023-03-24T17:12:16.080Z,96402.56
2023-03-24T17:14:45.405Z,96395.31
2023-03-24T17:17:13.716Z,96391.47
2023-03-24T17:19:42.956Z,96377.72
2023-03-24T17:22:17.593Z,96385.69
2023-03-24T17:24:48.219Z,96381.09
2023-03-24T17:27:18.727Z,96381.72
2023-03-24T17:29:47.460Z,96391.78
2023-03-24T17:32:15.364Z,96390.19
2023-03-24T17:34:43.412Z,96382.84
2023-03-24T17:37:12.956Z,96375.81
2023-03-24T17:39:41.248Z,96389.75
2023-03-24T17:42:09.118Z,96390.03
2023-03-24T17:44:37.470Z,96387.91
2023-03-24T17:47:05.990Z,96392.34
2023-03-24T17:50:22.062Z,96384.69
2023-03-24T17:52:54.896Z,96391.25
2023-03-24T17:55:22.931Z,96392.78
2023-03-24T17:57:50.844Z,96392.88
2023-03-24T18:00:19.793Z,96401.75
2023-03-24T18:02:48.067Z,96398.56
2023-03-24T18:05:16.290Z,96394.31
2023-03-24T18:07:44.560Z,96404.56
2023-03-24T18:10:14.687Z,96396.47
2023-03-24T18:12:42.674Z,96401.91
2023-03-24T18:15:11.469Z,96394.34
2023-03-24T18:17:39.541Z,96405.63
2023-03-24T18:20:12.169Z,96403.41
2023-03-24T18:22:41.081Z,96396.53
2023-03-24T18:25:10.541Z,96397.31
2023-03-24T18:27:40.322Z,96401.59
2023-03-24T18:30:09.767Z,96395.84
2023-03-24T18:32:39.159Z,96385.66
2023-03-24T18:35:08.092Z,96392.22
2023-03-24T18:37:37.169Z,96402.91
2023-03-24T18:40:07.238Z,96396.75
2023-03-24T18:42:35.557Z,96399.81
2023-03-24T18:45:05.349Z,96393.63
2023-03-24T18:47:33.330Z,96394.84
2023-03-24T18:50:01.947Z,96390.91
2023-03-24T18:52:33.075Z,96375.72
2023-03-24T18:55:02.510Z,96382.34
2023-03-24T18:57:33.923Z,96389.91
2023-03-24T19:00:02.098Z,96394.69
2023-03-24T19:02:32.148Z,96403.47
2023-03-24T19:05:00.256Z,96396.25
2023-03-24T19:07:28.241Z,96388.56
2023-03-24T19:09:56.553Z,96378.69
2023-03-24T19:12:24.575Z,96383.94
2023-03-24T19:14:54.169Z,96377.75
2023-03-24T19:17:23.651Z,96372.25
2023-03-24T19:19:58.005Z,96375.63
2023-03-24T19:22:26.958Z,96378.03
2023-03-24T19:24:55.707Z,96386.97
2023-03-24T19:27:23.740Z,96371.66
2023-03-24T19:29:51.773Z,96370.25
2023-03-24T19:32:19.776Z,96362.53
2023-03-24T19:34:48.114Z,96366.25
2023-03-24T19:37:18.054Z,96369.78
2023-03-24T19:39:46.062Z,96367.09
2023-03-24T19:42:13.984Z,96361.91
2023-03-24T19:44:41.948Z,96362.38
2023-03-24T19:47:10.205Z,96361.75
2023-03-24T19:49:38.662Z,96368.41
2023-03-24T19:52:06.738Z,96367.50
2023-03-24T19:54:36.716Z,96365.13
2023-03-24T19:57:05.634Z,96374.34
2023-03-24T19:59:33.671Z,96369.28
2023-03-24T20:02:01.883Z,96360.91
2023-03-24T20:04:29.992Z,96367.56
2023-03-24T20:06:58.576Z,96365.44
2023-03-24T20:09:26.493Z,96357.50
2023-03-24T20:11:56.568Z,96365.91
2023-03-24T20:14:24.508Z,96372.94
2023-03-24T20:16:52.762Z,96371.09
2023-03-24T20:19:20.675Z,96364.38
2023-03-24T20:21:48.607Z,96364.94
2023-03-24T20:24:16.855Z,96360.88
2023-03-24T20:26:46.023Z,96357.91
2023-03-24T20:29:17.109Z,96359.03
2023-03-24T20:31:45.593Z,96360.44
2023-03-24T20:34:13.562Z,96360.25
2023-03-24T20:36:43.254Z,96369.44
2023-03-24T20:39:11.464Z,96367.75
2023-03-24T20:41:39.655Z,96368.19
2023-03-24T20:44:07.571Z,96362.56
2023-03-24T20:46:37.124Z,96359.34
2023-03-24T20:49:05.513Z,96361.16
2023-03-24T20:51:34.001Z,96350.66
2023-03-24T20:54:02.053Z,96356.78
2023-03-24T20:56:30.411Z,96350.81
2023-03-24T20:58:58.373Z,96350.81
2023-03-24T21:01:26.387Z,96349.28
2023-03-24T21:04:02.123Z,96342.56
2023-03-24T21:06:36.931Z,96348.56
2023-03-24T21:09:05.235Z,96348.50
2023-03-24T21:11:33.583Z,96347.06
2023-03-24T21:14:02.670Z,96347.91
2023-03-24T21:16:33.859Z,96340.81
2023-03-24T21:19:03.832Z,96337.22
2023-03-24T21:21:32.302Z,96330.78
2023-03-24T21:24:00.562Z,96336.28
2023-03-24T21:26:28.958Z,96336.53
2023-03-24T21:28:56.901Z,96332.03
2023-03-24T21:31:26.453Z,96326.22
2023-03-24T21:33:54.928Z,96345.88
2023-03-24T21:36:24.557Z,96334.97
2023-03-24T21:38:54.157Z,96330.72
2023-03-24T21:41:23.053Z,96332.53
2023-03-24T21:43:54.347Z,96327.59
2023-03-24T21:46:23.860Z,96332.31
2023-03-24T21:48:55.681Z,96323.09
2023-03-24T21:51:26.072Z,96327.31
2023-03-24T21:53:55.899Z,96328.53
2023-03-24T21:56:23.873Z,96322.31
2023-03-24T21:58:54.044Z,96315.84
2023-03-24T22:01:22.019Z,96318.16
2023-03-24T22:03:50.975Z,96316.47
2023-03-24T22:06:21.829Z,96319.53
2023-03-24T22:08:53.337Z,96326.44
2023-03-24T22:11:21.388Z,96325.22
2023-03-24T22:13:49.370Z,96320.97
2023-03-24T22:16:17.668Z,96321.44
2023-03-24T22:18:47.231Z,96324.00
2023-03-24T22:21:15.431Z,96319.59
2023-03-24T22:23:43.664Z,96321.28
2023-03-24T22:26:13.885Z,96321.19
2023-03-24T22:28:42.260Z,96318.84
2023-03-24T22:31:11.665Z,96318.16
2023-03-24T22:33:39.749Z,96313.66
2023-03-24T22:36:08.749Z,96326.78
2023-03-24T22:38:37.048Z,96323.66
2023-03-24T22:41:06.434Z,96328.47
2023-03-24T22:43:36.436Z,96324.88
2023-03-24T22:46:04.884Z,96327.69
2023-03-24T22:48:32.949Z,96323.81
2023-03-24T22:51:01.146Z,96323.22
2023-03-24T22:53:29.088Z,96332.91
2023-03-24T22:55:57.278Z,96332.88
2023-03-24T22:58:25.320Z,96331.72
2023-03-24T23:00:55.891Z,96340.16
2023-03-24T23:03:24.141Z,96339.06
2023-03-24T23:05:52.459Z,96343.50
2023-03-24T23:08:20.588Z,96348.44
2023-03-24T23:10:48.795Z,96356.25
2023-03-24T23:13:17.913Z,96359.63
2023-03-24T23:15:45.839Z,96359.81
2023-03-24T23:18:15.273Z,96359.91
2023-03-24T23:20:43.521Z,96375.53
2023-03-24T23:23:12.009Z,96371.59
2023-03-24T23:25:40.684Z,96380.44
2023-03-24T23:28:08.906Z,96370.91
2023-03-24T23:30:37.196Z,96370.03
2023-03-24T23:33:05.244Z,96377.28
2023-03-24T23:35:41.800Z,96371.78
2023-03-24T23:38:17.056Z,96384.72
2023-03-24T23:40:45.354Z,96384.03
2023-03-24T23:43:13.307Z,96376.13
2023-03-24T23:45:41.400Z,96365.22
2023-03-24T23:48:09.692Z,96367.03
2023-03-24T23:50:39.025Z,96363.94
2023-03-24T23:53:06.954Z,96377.84
2023-03-24T23:55:34.868Z,96377.31
2023-03-24T23:58:04.278Z,96378.56
